^^
Saratoga-Weather Station Historical Data
Daily Summary for April 21, 2017 Units:  Metric    English   Both
Daily Weekly Monthly Yearly Custom
  High: Low: Average:
Temperature: 12.8 °C 8.9 °C 10.2 °C
Dew Point: 10.7 °C 7.4 °C 8.8 °C
Humidity: 95% 71% 91%
Wind Speed: 7.4km/h 0km/h 1.9km/h
Wind Gust: 11.1km/h - -
Wind- - NE
Pressure: 1018.8 hPa 1012.8 hPa -
Precipitation: 6.35 mm    
Historical Graphs
 
 
Tabular Data for April 21, 2017
Time Temperature Dew Point Pressure Wind Wind Speed Wind Gust Humidity Rainfall Rate (Hourly) solar
00:01 12.8 °C 8.1 °C 1018.8 hPa NE 4.2 km/h 5.6 km/h 73% 0 mm 0.0 W/m2
00:06 12.7 °C 7.7 °C 1018.5 hPa NNE 3.2 km/h 5.6 km/h 72% 0 mm 0.0 W/m2
00:11 12.6 °C 7.4 °C 1018.2 hPa NE 4.2 km/h 5.6 km/h 71% 0 mm 0.0 W/m2
00:16 12.5 °C 7.6 °C 1018.5 hPa NNE 2.6 km/h 3.7 km/h 72% 0 mm 0.0 W/m2
00:21 12.4 °C 7.6 °C 1018.5 hPa NE 3.1 km/h 5.6 km/h 72% 0 mm 0.0 W/m2
00:26 12.3 °C 7.8 °C 1018.2 hPa NE 4.5 km/h 7.4 km/h 74% 0 mm 0.0 W/m2
00:31 12.2 °C 8.3 °C 1018.5 hPa NE 7.4 km/h 11.1 km/h 77% 0 mm 0.0 W/m2
00:36 11.9 °C 8.2 °C 1018.2 hPa NNE 3.4 km/h 5.6 km/h 78% 0.25 mm 0.0 W/m2
00:41 11.7 °C 8.4 °C 1018.5 hPa NE 1.9 km/h 5.6 km/h 80% 0.51 mm 0.0 W/m2
00:46 11.6 °C 8.4 °C 1018.5 hPa NNE 3.5 km/h 5.6 km/h 81% 0.51 mm 0.0 W/m2
00:51 11.4 °C 8.5 °C 1018.5 hPa NNE 3.2 km/h 5.6 km/h 82% 0.51 mm 0.0 W/m2
00:56 11.2 °C 8.2 °C 1018.2 hPa NE 3.2 km/h 5.6 km/h 82% 0.51 mm 0.0 W/m2
01:01 11 °C 8.1 °C 1018.2 hPa East 2.3 km/h 3.7 km/h 82% 0.51 mm 0.0 W/m2
01:06 10.9 °C 8.2 °C 1018.5 hPa NE 1.1 km/h 3.7 km/h 83% 0.51 mm 0.0 W/m2
01:11 10.8 °C 8.2 °C 1018.5 hPa NNE 1 km/h 3.7 km/h 84% 0.51 mm 0.0 W/m2
01:16 10.7 °C 8.1 °C 1018.2 hPa NE 3.7 km/h 5.6 km/h 84% 0.51 mm 0.0 W/m2
01:21 10.6 °C 7.9 °C 1018.2 hPa NE 2.9 km/h 4.8 km/h 84% 0.51 mm 0.0 W/m2
01:26 10.6 °C 8.1 °C 1018.2 hPa ENE 3.9 km/h 4.8 km/h 85% 0.51 mm 0.0 W/m2
01:31 10.5 °C 8.3 °C 1018.2 hPa NE 3.9 km/h 5.6 km/h 86% 0.51 mm 0.0 W/m2
01:36 10.4 °C 8.2 °C 1018.2 hPa NE 3.4 km/h 5.6 km/h 86% 0.25 mm 0.0 W/m2
01:41 10.3 °C 8.1 °C 1017.8 hPa NE 3.4 km/h 5.6 km/h 86% 0 mm 0.0 W/m2
01:46 10.2 °C 8 °C 1017.8 hPa NE 3.1 km/h 5.6 km/h 86% 0 mm 0.0 W/m2
01:51 10.2 °C 7.9 °C 1017.5 hPa NE 3.7 km/h 5.6 km/h 86% 0 mm 0.0 W/m2
01:56 10.1 °C 7.8 °C 1017.8 hPa North 1.6 km/h 5.6 km/h 86% 0.25 mm 0.0 W/m2
02:01 10 °C 7.8 °C 1017.5 hPa NNE 2.1 km/h 5.6 km/h 86% 0.25 mm 0.0 W/m2
02:06 9.9 °C 7.9 °C 1017.5 hPa North 2.9 km/h 5.6 km/h 87% 0.25 mm 0.0 W/m2
02:11 9.9 °C 7.8 °C 1017.5 hPa NNE 3.2 km/h 5.6 km/h 87% 0.25 mm 0.0 W/m2
02:16 9.8 °C 7.8 °C 1017.5 hPa NNE 1.8 km/h 3.7 km/h 87% 0.25 mm 0.0 W/m2
02:21 9.8 °C 7.7 °C 1017.2 hPa NE 1.9 km/h 5.6 km/h 87% 0.25 mm 0.0 W/m2
02:26 9.7 °C 7.8 °C 1017.2 hPa NE 2.7 km/h 5.6 km/h 88% 0.25 mm 0.0 W/m2
02:32 9.7 °C 7.8 °C 1016.8 hPa NE 1.3 km/h 3.7 km/h 88% 0.25 mm 0.0 W/m2
02:37 9.6 °C 7.7 °C 1016.8 hPa NE 2.3 km/h 3.7 km/h 88% 0.25 mm 0.0 W/m2
02:42 9.6 °C 7.7 °C 1016.8 hPa NE 3.4 km/h 5.6 km/h 88% 0.25 mm 0.0 W/m2
02:47 9.5 °C 7.6 °C 1016.8 hPa NE 3.1 km/h 5.6 km/h 88% 0.25 mm 0.0 W/m2
02:52 9.5 °C 7.6 °C 1016.5 hPa ENE 4 km/h 5.6 km/h 88% 0.51 mm 0.0 W/m2
02:57 9.4 °C 7.6 °C 1016.8 hPa NE 2.4 km/h 3.7 km/h 88% 0.25 mm 0.0 W/m2
03:02 9.4 °C 7.7 °C 1016.8 hPa Calm     89% 0.25 mm 0.0 W/m2
03:07 9.4 °C 7.7 °C 1016.8 hPa Calm     89% 0.25 mm 0.0 W/m2
03:12 9.4 °C 7.7 °C 1016.8 hPa NNE 1.8 km/h 3.7 km/h 89% 0.25 mm 0.0 W/m2
03:17 9.4 °C 7.7 °C 1016.8 hPa NNE 0.2 km/h 1.9 km/h 89% 0.25 mm 0.0 W/m2
03:22 9.3 °C 7.6 °C 1016.8 hPa NNE 1 km/h 3.2 km/h 89% 0.25 mm 0.0 W/m2
03:27 9.3 °C 7.6 °C 1016.8 hPa NNE 0.3 km/h 1.6 km/h 89% 0.25 mm 0.0 W/m2
03:32 9.3 °C 7.6 °C 1016.8 hPa Calm     89% 0.25 mm 0.0 W/m2
03:37 9.3 °C 7.7 °C 1016.8 hPa NNE 1.9 km/h 3.7 km/h 90% 0.25 mm 0.0 W/m2
03:42 9.3 °C 7.7 °C 1016.5 hPa Calm     90% 0.25 mm 0.0 W/m2
03:47 9.3 °C 7.7 °C 1016.8 hPa NE 2.4 km/h 3.7 km/h 90% 0.25 mm 0.0 W/m2
03:52 9.2 °C 7.7 °C 1016.8 hPa North 2.3 km/h 3.7 km/h 90% 0 mm 0.0 W/m2
03:53 9.2 °C 7.7 °C 1016.5 hPa NE 2.4 km/h 3.7 km/h 90% 0 mm 0.0 W/m2
03:58 9.2 °C 7.7 °C 1016.5 hPa NNE 3.5 km/h 5.6 km/h 90% 0 mm 0.0 W/m2
04:03 9.2 °C 7.7 °C 1016.1 hPa NNE 2.1 km/h 3.7 km/h 90% 0 mm 0.0 W/m2
04:08 9.2 °C 7.7 °C 1016.5 hPa North 2.9 km/h 5.6 km/h 90% 0 mm 0.0 W/m2
04:13 9.2 °C 7.6 °C 1016.5 hPa NNE 2.7 km/h 3.7 km/h 90% 0 mm 0.0 W/m2
04:18 9.2 °C 7.7 °C 1016.5 hPa NE 1.4 km/h 3.7 km/h 90% 0 mm 0.0 W/m2
04:23 9.3 °C 7.9 °C 1016.5 hPa NE 1.8 km/h 3.7 km/h 91% 0 mm 0.0 W/m2
04:24 9.3 °C 7.9 °C 1016.1 hPa NE 2.1 km/h 3.7 km/h 91% 0 mm 0.0 W/m2
04:29 9.2 °C 7.8 °C 1016.1 hPa NNE 1.4 km/h 3.7 km/h 91% 0 mm 0.0 W/m2
04:34 9.3 °C 7.9 °C 1016.5 hPa ENE 2.7 km/h 5.6 km/h 91% 0 mm 0.0 W/m2
04:39 9.3 °C 7.9 °C 1016.1 hPa NNE 3.1 km/h 5.6 km/h 91% 0 mm 0.0 W/m2
04:45 9.3 °C 7.9 °C 1016.1 hPa NE 2.9 km/h 5.6 km/h 91% 0 mm 0.0 W/m2
04:50 9.3 °C 7.9 °C 1016.1 hPa NNE 2.3 km/h 3.7 km/h 91% 0 mm 0.0 W/m2
04:55 9.2 °C 7.8 °C 1016.1 hPa NNE 4.2 km/h 5.6 km/h 91% 0 mm 0.0 W/m2
05:00 9.2 °C 7.8 °C 1016.1 hPa NE 2.1 km/h 5.6 km/h 91% 0 mm 0.0 W/m2
05:05 9.2 °C 7.8 °C 1016.1 hPa NNE 0.8 km/h 5.6 km/h 91% 0 mm 0.0 W/m2
05:10 9.2 °C 7.8 °C 1016.5 hPa NNE 3.1 km/h 3.7 km/h 91% 0 mm 0.0 W/m2
05:15 9.2 °C 7.8 °C 1016.1 hPa NE 2.6 km/h 3.7 km/h 91% 0 mm 0.0 W/m2
05:20 9.2 °C 7.8 °C 1016.1 hPa NNE 0.6 km/h 3.7 km/h 91% 0 mm 0.0 W/m2
05:25 9.2 °C 7.8 °C 1016.1 hPa NE 2.1 km/h 5.6 km/h 91% 0 mm 0.0 W/m2
05:30 9.2 °C 7.8 °C 1016.5 hPa North 2.3 km/h 3.7 km/h 91% 0 mm 0.0 W/m2
05:35 9.2 °C 7.8 °C 1016.8 hPa NNE 3.2 km/h 5.6 km/h 91% 0.25 mm 0.0 W/m2
05:40 9.1 °C 7.7 °C 1016.8 hPa North 2.3 km/h 3.7 km/h 91% 0.51 mm 0.0 W/m2
05:45 9.2 °C 7.8 °C 1016.5 hPa NE 4.5 km/h 5.6 km/h 91% 0.51 mm 0.0 W/m2
05:50 9.1 °C 7.9 °C 1016.5 hPa NE 2.6 km/h 5.6 km/h 92% 0.51 mm 0.0 W/m2
05:55 9.2 °C 7.9 °C 1016.5 hPa NE 1.6 km/h 3.7 km/h 92% 0.51 mm 0.0 W/m2
06:00 9.1 °C 7.9 °C 1017.2 hPa NW 1.9 km/h 3.7 km/h 92% 0.51 mm 0.0 W/m2
06:05 9.1 °C 7.8 °C 1017.8 hPa West 4 km/h 6.4 km/h 92% 0.51 mm 0.0 W/m2
06:10 9.1 °C 7.8 °C 1016.8 hPa NE 2.9 km/h 5.6 km/h 92% 0.51 mm 0.0 W/m2
06:15 9.1 °C 7.8 °C 1016.8 hPa NE 1.9 km/h 5.6 km/h 92% 1.02 mm 0.0 W/m2
06:20 9.1 °C 7.8 °C 1016.8 hPa ENE 2.3 km/h 3.7 km/h 92% 1.52 mm 0.0 W/m2
06:25 9 °C 7.8 °C 1016.8 hPa NNE 3.1 km/h 4.8 km/h 92% 1.78 mm 0.0 W/m2
06:30 8.9 °C 7.7 °C 1016.8 hPa NE 1.4 km/h 3.7 km/h 92% 2.03 mm 0.0 W/m2
06:35 8.9 °C 7.9 °C 1016.8 hPa NE 2.1 km/h 3.7 km/h 93% 1.78 mm 5.0 W/m2
06:40 9 °C 7.9 °C 1016.8 hPa NE 0.6 km/h 3.7 km/h 93% 1.78 mm 5.0 W/m2
06:45 8.9 °C 7.9 °C 1016.8 hPa NNE 0.8 km/h 1.9 km/h 93% 2.03 mm 5.0 W/m2
06:50 9 °C 7.9 °C 1016.8 hPa NNE 1.1 km/h 3.7 km/h 93% 2.29 mm 5.0 W/m2
06:55 9 °C 7.9 °C 1016.8 hPa NNE 2.3 km/h 3.7 km/h 93% 2.29 mm 7.0 W/m2
07:00 8.9 °C 7.9 °C 1016.8 hPa NNE 2.3 km/h 3.7 km/h 93% 2.54 mm 11.0 W/m2
07:05 8.9 °C 7.9 °C 1016.8 hPa NE 3.2 km/h 5.6 km/h 93% 2.79 mm 7.0 W/m2
07:11 8.9 °C 7.9 °C 1016.8 hPa NNE 1.6 km/h 3.7 km/h 93% 3.3 mm 5.0 W/m2
07:16 8.9 °C 7.8 °C 1017.2 hPa Calm   1.6 km/h 93% 2.79 mm 7.0 W/m2
07:21 8.9 °C 7.9 °C 1016.8 hPa Calm   1.6 km/h 93% 2.79 mm 16.0 W/m2
07:26 8.9 °C 7.9 °C 1017.2 hPa North 2.7 km/h 4.8 km/h 93% 2.79 mm 12.0 W/m2
07:31 8.9 °C 7.8 °C 1017.5 hPa NNW 2.7 km/h 5.6 km/h 93% 2.79 mm 7.0 W/m2
07:36 8.9 °C 7.8 °C 1017.5 hPa NNE 1.9 km/h 3.7 km/h 93% 3.05 mm 11.0 W/m2
07:41 8.9 °C 7.8 °C 1017.2 hPa Calm     93% 2.79 mm 12.0 W/m2
07:42 8.9 °C 7.8 °C 1017.2 hPa Calm     93% 2.79 mm 14.0 W/m2
07:47 8.9 °C 8 °C 1017.2 hPa NNE 1 km/h 1.9 km/h 94% 2.79 mm 18.0 W/m2
07:52 8.9 °C 8.1 °C 1017.2 hPa NNE 0.5 km/h 1.9 km/h 94% 2.54 mm 14.0 W/m2
07:57 8.9 °C 8 °C 1017.2 hPa Calm   1.9 km/h 94% 2.54 mm 18.0 W/m2
08:02 8.9 °C 8.1 °C 1017.2 hPa NNE 0.8 km/h 3.2 km/h 94% 2.29 mm 28.0 W/m2
08:07 8.9 °C 8.1 °C 1017.2 hPa NNE 0.2 km/h 1.9 km/h 94% 1.78 mm 18.0 W/m2
08:12 9 °C 8.1 °C 1017.2 hPa NNE 1.4 km/h 3.7 km/h 94% 1.52 mm 30.0 W/m2
08:17 9 °C 8.1 °C 1016.8 hPa NNE 1.8 km/h 3.7 km/h 94% 1.02 mm 40.0 W/m2
08:22 9.1 °C 8.2 °C 1017.2 hPa NNE 1.8 km/h 5.6 km/h 94% 0.76 mm 23.0 W/m2
08:27 9.1 °C 8.2 °C 1017.2 hPa NNE 3.2 km/h 5.6 km/h 94% 0.76 mm 33.0 W/m2
08:32 9.1 °C 8.2 °C 1017.2 hPa NNE 2.1 km/h 3.7 km/h 94% 0.51 mm 40.0 W/m2
08:37 9.1 °C 8.2 °C 1016.8 hPa NNE 2.4 km/h 5.6 km/h 94% 0.25 mm 39.0 W/m2
08:42 9.1 °C 8.2 °C 1016.8 hPa NNE 1.4 km/h 3.7 km/h 94% 0.25 mm 44.0 W/m2
08:48 9.1 °C 8.2 °C 1016.5 hPa NE 2.7 km/h 5.6 km/h 94% 0 mm 84.0 W/m2
08:53 9.2 °C 8.3 °C 1016.8 hPa NNE 1.8 km/h 3.7 km/h 94% 0 mm 49.0 W/m2
08:58 9.2 °C 8.3 °C 1016.8 hPa NNE 1.6 km/h 3.7 km/h 94% 0 mm 42.0 W/m2
09:03 9.2 °C 8.3 °C 1016.8 hPa NNE 2.6 km/h 3.7 km/h 94% 0 mm 53.0 W/m2
09:08 9.2 °C 8.3 °C 1016.8 hPa NNE 2.6 km/h 5.6 km/h 94% 0 mm 44.0 W/m2
09:13 9.2 °C 8.3 °C 1016.5 hPa NE 3.1 km/h 5.6 km/h 94% 0 mm 53.0 W/m2
09:18 9.2 °C 8.3 °C 1016.5 hPa NE 3.2 km/h 6.4 km/h 94% 0 mm 58.0 W/m2
09:23 9.2 °C 8.3 °C 1016.1 hPa NNE 2.3 km/h 5.6 km/h 94% 0 mm 49.0 W/m2
09:28 9.2 °C 8.3 °C 1016.5 hPa NNE 1.4 km/h 3.7 km/h 94% 0 mm 47.0 W/m2
09:33 9.2 °C 8.3 °C 1016.5 hPa NE 3.4 km/h 5.6 km/h 94% 0 mm 67.0 W/m2
09:38 9.3 °C 8.4 °C 1016.1 hPa NE 1 km/h 3.7 km/h 94% 0 mm 63.0 W/m2
09:43 9.3 °C 8.4 °C 1016.5 hPa NNE 2.1 km/h 3.7 km/h 94% 0 mm 42.0 W/m2
09:48 9.4 °C 8.4 °C 1016.5 hPa NE 2.4 km/h 5.6 km/h 94% 0 mm 56.0 W/m2
09:53 9.4 °C 8.4 °C 1016.5 hPa North 3.4 km/h 5.6 km/h 94% 0 mm 60.0 W/m2
09:58 9.4 °C 8.5 °C 1016.1 hPa NNE 1 km/h 3.7 km/h 94% 0 mm 97.0 W/m2
10:03 9.4 °C 8.5 °C 1016.1 hPa NNE 1.4 km/h 3.2 km/h 94% 0 mm 98.0 W/m2
10:08 9.5 °C 8.6 °C 1016.1 hPa NE 2.9 km/h 5.6 km/h 94% 0 mm 72.0 W/m2
10:13 9.5 °C 8.6 °C 1016.1 hPa North 2.9 km/h 4.8 km/h 94% 0 mm 120.0 W/m2
10:18 9.6 °C 8.6 °C 1016.1 hPa North 3.7 km/h 5.6 km/h 94% 0 mm 107.0 W/m2
10:23 9.6 °C 8.7 °C 1016.1 hPa NNE 2.3 km/h 3.7 km/h 94% 0 mm 84.0 W/m2
10:28 9.6 °C 8.7 °C 1016.1 hPa NE 2.6 km/h 3.7 km/h 94% 0 mm 76.0 W/m2
10:33 9.6 °C 8.7 °C 1016.1 hPa NE 3.1 km/h 5.6 km/h 94% 0 mm 83.0 W/m2
10:38 9.6 °C 8.7 °C 1016.1 hPa NNE 3.4 km/h 5.6 km/h 94% 0 mm 88.0 W/m2
10:43 9.6 °C 8.7 °C 1016.1 hPa North 3.1 km/h 5.6 km/h 94% 0 mm 97.0 W/m2
10:45 9.6 °C 8.7 °C 1016.1 hPa NNE 3.4 km/h 5.6 km/h 94% 0 mm 111.0 W/m2
10:50 9.7 °C 8.7 °C 1016.1 hPa NE 1.8 km/h 3.7 km/h 94% 0 mm 120.0 W/m2
10:55 9.7 °C 8.8 °C 1015.8 hPa NE 2.9 km/h 5.6 km/h 94% 0 mm 100.0 W/m2
11:00 9.7 °C 8.7 °C 1015.8 hPa NNE 1.8 km/h 1.9 km/h 94% 0 mm 81.0 W/m2
11:05 9.7 °C 8.8 °C 1015.8 hPa NNE 2.3 km/h 3.7 km/h 94% 0 mm 74.0 W/m2
11:10 9.8 °C 8.8 °C 1015.8 hPa NNE 3.4 km/h 5.6 km/h 94% 0 mm 127.0 W/m2
11:15 9.8 °C 8.8 °C 1015.5 hPa NNE 2.4 km/h 2.4 km/h 94% 0 mm 141.0 W/m2
11:20 9.9 °C 9 °C 1015.5 hPa NE 2.3 km/h 4.8 km/h 94% 0 mm 156.0 W/m2
11:25 10 °C 9.1 °C 1015.1 hPa NNE 1.1 km/h 5.6 km/h 94% 0 mm 179.0 W/m2
11:30 10.1 °C 9.3 °C 1015.1 hPa NNE 3.2 km/h 3.7 km/h 95% 0 mm 153.0 W/m2
11:35 10.2 °C 9.2 °C 1015.1 hPa NNE 0.8 km/h 1.6 km/h 94% 0 mm 176.0 W/m2
11:40 10.3 °C 9.3 °C 1015.1 hPa NNE 3.9 km/h 5.6 km/h 94% 0 mm 197.0 W/m2
11:45 10.3 °C 9.6 °C 1014.8 hPa NE 1.3 km/h 3.7 km/h 95% 0 mm 206.0 W/m2
11:50 10.3 °C 9.6 °C 1015.1 hPa ENE 3.7 km/h 5.6 km/h 95% 0 mm 178.0 W/m2
11:55 10.4 °C 9.4 °C 1015.1 hPa NE 4.2 km/h 5.6 km/h 94% 0 mm 171.0 W/m2
12:00 10.4 °C 9.5 °C 1015.1 hPa NNE 4.2 km/h 5.6 km/h 94% 0 mm 146.0 W/m2
12:05 10.4 °C 9.5 °C 1015.1 hPa NE 2.6 km/h 5.6 km/h 94% 0 mm 114.0 W/m2
12:10 10.4 °C 9.5 °C 1015.1 hPa NE 1.8 km/h 3.7 km/h 94% 0 mm 132.0 W/m2
12:15 10.5 °C 9.6 °C 1014.8 hPa NE 0.8 km/h 3.7 km/h 94% 0 mm 121.0 W/m2
12:20 10.5 °C 9.6 °C 1014.8 hPa NE 3.1 km/h 5.6 km/h 94% 0 mm 193.0 W/m2
12:25 10.6 °C 9.7 °C 1014.8 hPa NNE 1 km/h 1.9 km/h 94% 0 mm 160.0 W/m2
12:30 10.7 °C 9.8 °C 1015.1 hPa NNE 5 km/h 5.6 km/h 94% 0 mm 141.0 W/m2
12:36 10.7 °C 9.8 °C 1014.8 hPa NE 2.4 km/h 4.8 km/h 94% 0 mm 130.0 W/m2
12:41 10.7 °C 9.8 °C 1014.8 hPa NNE 2.7 km/h 3.7 km/h 94% 0 mm 155.0 W/m2
12:46 10.8 °C 9.8 °C 1014.8 hPa Calm     94% 0 mm 148.0 W/m2
12:51 10.8 °C 9.9 °C 1014.8 hPa North 1.6 km/h 3.7 km/h 94% 0 mm 141.0 W/m2
12:56 10.9 °C 10 °C 1014.8 hPa NNE 2.9 km/h 4.8 km/h 94% 0 mm 128.0 W/m2
13:01 10.9 °C 10 °C 1014.8 hPa NNE 1.1 km/h 3.7 km/h 94% 0 mm 127.0 W/m2
13:06 11 °C 9.9 °C 1014.8 hPa NNE 1.6 km/h 3.7 km/h 93% 0 mm 128.0 W/m2
13:11 11.1 °C 10 °C 1014.8 hPa NNE 2.1 km/h 3.7 km/h 93% 0 mm 130.0 W/m2
13:16 11.2 °C 10.2 °C 1015.1 hPa NNE 2.7 km/h 5.6 km/h 94% 0 mm 141.0 W/m2
13:21 11.2 °C 10.1 °C 1015.1 hPa NE 0.8 km/h 3.7 km/h 93% 0 mm 114.0 W/m2
13:26 11.2 °C 10.1 °C 1014.8 hPa NE 2.4 km/h 5.6 km/h 93% 0 mm 114.0 W/m2
13:31 11.3 °C 10.2 °C 1014.4 hPa NE 0.2 km/h 3.7 km/h 93% 0 mm 148.0 W/m2
13:36 11.3 °C 10.2 °C 1014.4 hPa NNE 1.1 km/h 1.9 km/h 93% 0 mm 148.0 W/m2
13:41 11.4 °C 10.3 °C 1014.8 hPa ENE 0.3 km/h 1.6 km/h 93% 0 mm 155.0 W/m2
13:46 11.5 °C 10.4 °C 1014.4 hPa ESE 1.3 km/h 3.7 km/h 93% 0 mm 151.0 W/m2
13:51 11.6 °C 10.4 °C 1014.4 hPa East 2.6 km/h 5.6 km/h 93% 0 mm 172.0 W/m2
13:56 11.6 °C 10.4 °C 1014.4 hPa ENE 2.7 km/h 5.6 km/h 93% 0 mm 137.0 W/m2
14:01 11.6 °C 10.3 °C 1014.4 hPa ENE 1 km/h 1.9 km/h 92% 0 mm 151.0 W/m2
14:06 11.7 °C 10.4 °C 1014.8 hPa ENE 1.6 km/h 3.2 km/h 92% 0 mm 130.0 W/m2
14:11 11.7 °C 10.4 °C 1014.4 hPa ENE 1 km/h 1.6 km/h 92% 0 mm 141.0 W/m2
14:16 11.8 °C 10.5 °C 1014.4 hPa East 0.6 km/h 3.7 km/h 92% 0 mm 128.0 W/m2
14:21 11.8 °C 10.5 °C 1014.4 hPa East 1.4 km/h 3.7 km/h 92% 0 mm 146.0 W/m2
14:23 11.8 °C 10.6 °C 1014.4 hPa East 2.3 km/h 3.7 km/h 92% 0 mm 107.0 W/m2
14:28 11.8 °C 10.6 °C 1014.1 hPa NE 2.6 km/h 4.8 km/h 92% 0 mm 146.0 W/m2
14:33 11.9 °C 10.4 °C 1014.1 hPa NE 1.8 km/h 3.7 km/h 91% 0 mm 84.0 W/m2
14:38 11.9 °C 10.5 °C 1014.4 hPa NE 2.6 km/h 3.2 km/h 91% 0 mm 144.0 W/m2
14:39 11.9 °C 10.5 °C 1014.1 hPa NE 1.9 km/h 3.7 km/h 91% 0 mm 148.0 W/m2
14:44 12 °C 10.6 °C 1014.1 hPa East 2.3 km/h 5.6 km/h 91% 0 mm 149.0 W/m2
14:49 12.1 °C 10.6 °C 1013.8 hPa East 1.9 km/h 5.6 km/h 91% 0 mm 160.0 W/m2
14:54 12 °C 10.4 °C 1013.4 hPa NE 2.9 km/h 7.4 km/h 90% 0 mm 178.0 W/m2
14:59 11.9 °C 10.3 °C 1013.4 hPa ENE 2.7 km/h 7.4 km/h 90% 0 mm 172.0 W/m2
15:04 11.9 °C 10.4 °C 1013.4 hPa ENE 0.5 km/h 5.6 km/h 91% 0 mm 171.0 W/m2
15:09 12 °C 10.6 °C 1013.4 hPa ENE 2.3 km/h 5.6 km/h 91% 0 mm 149.0 W/m2
15:14 12.1 °C 10.6 °C 1013.8 hPa East 2.3 km/h 5.6 km/h 91% 0 mm 104.0 W/m2
15:19 12.1 °C 10.6 °C 1013.8 hPa NNE 0.6 km/h 3.7 km/h 91% 0 mm 90.0 W/m2
15:24 12.1 °C 10.6 °C 1013.8 hPa ENE 2.7 km/h 5.6 km/h 91% 0 mm 102.0 W/m2
15:29 12.1 °C 10.6 °C 1013.4 hPa ENE 1.6 km/h 3.7 km/h 91% 0 mm 130.0 W/m2
15:34 12.1 °C 10.7 °C 1013.4 hPa Calm     91% 0 mm 104.0 W/m2
15:40 12.2 °C 10.7 °C 1013.4 hPa East 2.1 km/h 5.6 km/h 91% 0 mm 107.0 W/m2
15:45 12.1 °C 10.7 °C 1013.4 hPa East 1.9 km/h 3.7 km/h 91% 0 mm 113.0 W/m2
15:50 12.1 °C 10.7 °C 1013.1 hPa NE 1.6 km/h 3.7 km/h 91% 0 mm 100.0 W/m2
15:55 12 °C 10.4 °C 1012.8 hPa East 2.9 km/h 4.8 km/h 90% 0 mm 120.0 W/m2
16:00 12 °C 10.6 °C 1012.8 hPa NE 2.6 km/h 5.6 km/h 91% 0 mm 98.0 W/m2
16:05 11.9 °C 10.3 °C 1013.1 hPa ESE 4.3 km/h 5.6 km/h 90% 0 mm 105.0 W/m2
16:10 11.8 °C 10.2 °C 1013.1 hPa NE 2.1 km/h 5.6 km/h 90% 0 mm 84.0 W/m2
16:15 11.8 °C 10.2 °C 1013.4 hPa ENE 0.8 km/h 3.2 km/h 90% 0 mm 91.0 W/m2
16:20 11.9 °C 10.3 °C 1013.4 hPa East 1 km/h 4.8 km/h 90% 0 mm 86.0 W/m2
16:25 11.8 °C 10.2 °C 1013.1 hPa East 1.4 km/h 5.6 km/h 90% 0 mm 62.0 W/m2
16:30 11.8 °C 10.2 °C 1013.1 hPa East 2.1 km/h 3.7 km/h 90% 0 mm 84.0 W/m2
16:35 11.8 °C 10.2 °C 1013.1 hPa East 4.2 km/h 7.4 km/h 90% 0 mm 77.0 W/m2
16:40 11.7 °C 9.9 °C 1013.4 hPa ESE 2.1 km/h 5.6 km/h 89% 0 mm 69.0 W/m2
16:45 11.7 °C 9.9 °C 1013.4 hPa ENE 0.3 km/h 3.7 km/h 89% 0 mm 54.0 W/m2
16:50 11.7 °C 9.9 °C 1013.4 hPa East 1.4 km/h 3.7 km/h 89% 0 mm 49.0 W/m2
16:55 11.7 °C 9.9 °C 1013.4 hPa ENE 2.6 km/h 3.7 km/h 89% 0 mm 39.0 W/m2
17:00 11.6 °C 10 °C 1013.4 hPa East 2.9 km/h 5.6 km/h 90% 0 mm 44.0 W/m2
17:05 11.6 °C 9.9 °C 1013.4 hPa Calm   1.9 km/h 90% 0 mm 37.0 W/m2
17:10 11.5 °C 9.9 °C 1013.8 hPa East 1.4 km/h 3.7 km/h 90% 0 mm 40.0 W/m2
17:15 11.4 °C 9.9 °C 1013.4 hPa East 3.2 km/h 3.7 km/h 90% 0 mm 70.0 W/m2
17:20 11.4 °C 9.8 °C 1013.4 hPa NE 1.3 km/h 3.2 km/h 90% 0 mm 53.0 W/m2
17:25 11.4 °C 9.8 °C 1013.4 hPa ENE 2.3 km/h 5.6 km/h 90% 0 mm 42.0 W/m2
17:30 11.3 °C 9.8 °C 1013.8 hPa ENE 3.4 km/h 5.6 km/h 90% 0 mm 56.0 W/m2
17:35 11.3 °C 9.8 °C 1013.8 hPa NNE 0.2 km/h 1.6 km/h 90% 0 mm 49.0 W/m2
17:40 11.3 °C 9.8 °C 1013.4 hPa ENE 1.4 km/h 3.7 km/h 90% 0 mm 69.0 W/m2
17:45 11.3 °C 9.8 °C 1013.4 hPa NE 1.8 km/h 3.7 km/h 90% 0 mm 51.0 W/m2
17:50 11.3 °C 9.7 °C 1013.4 hPa NE 1 km/h 1.9 km/h 90% 0 mm 33.0 W/m2
17:55 11.2 °C 9.7 °C 1013.8 hPa ENE 1.3 km/h 1.9 km/h 90% 0 mm 32.0 W/m2
18:00 11.2 °C 9.6 °C 1013.4 hPa East 1.9 km/h 3.7 km/h 90% 0 mm 42.0 W/m2
18:05 11.2 °C 9.8 °C 1013.4 hPa ENE 1.1 km/h 3.7 km/h 91% 0 mm 32.0 W/m2
18:10 11.2 °C 9.8 °C 1013.4 hPa ENE 2.6 km/h 5.6 km/h 91% 0 mm 42.0 W/m2
18:15 11.1 °C 9.7 °C 1013.1 hPa NE 3.1 km/h 5.6 km/h 91% 0 mm 35.0 W/m2
18:20 10.9 °C 9.6 °C 1013.1 hPa NE 1.4 km/h 3.7 km/h 91% 0 mm 30.0 W/m2
18:25 10.9 °C 9.5 °C 1013.4 hPa ENE 1.1 km/h 3.7 km/h 91% 0 mm 40.0 W/m2
18:30 10.9 °C 9.7 °C 1013.4 hPa Calm   1.9 km/h 92% 0 mm 25.0 W/m2
18:35 10.8 °C 9.6 °C 1013.1 hPa NNE 1 km/h 3.7 km/h 92% 0 mm 18.0 W/m2
18:40 10.8 °C 9.6 °C 1013.1 hPa NNE 0.5 km/h 1.9 km/h 92% 0 mm 9.0 W/m2
18:45 10.8 °C 9.6 °C 1013.4 hPa Calm     92% 0 mm 16.0 W/m2
18:50 10.8 °C 9.6 °C 1013.4 hPa Calm     92% 0 mm 9.0 W/m2
18:55 10.8 °C 9.6 °C 1013.4 hPa Calm     92% 0 mm 9.0 W/m2
19:00 10.7 °C 9.5 °C 1013.4 hPa Calm   1.9 km/h 92% 0 mm 5.0 W/m2
19:05 10.8 °C 9.6 °C 1013.4 hPa NNE 3.4 km/h 5.6 km/h 92% 0 mm 0.0 W/m2
19:10 10.7 °C 9.5 °C 1013.4 hPa NNE 2.9 km/h 3.7 km/h 92% 0 mm 0.0 W/m2
19:15 10.7 °C 9.4 °C 1013.8 hPa NNE 2.9 km/h 3.7 km/h 92% 0 mm 0.0 W/m2
19:20 10.6 °C 9.4 °C 1013.4 hPa NE 1.4 km/h 3.7 km/h 92% 0 mm 0.0 W/m2
19:26 10.6 °C 9.3 °C 1013.8 hPa NE 1.3 km/h 3.7 km/h 92% 0 mm 0.0 W/m2
19:31 10.4 °C 9.2 °C 1013.8 hPa NE 1 km/h 1.9 km/h 92% 0 mm 0.0 W/m2
19:36 10.3 °C 9.1 °C 1013.8 hPa NE 1.3 km/h 3.7 km/h 92% 0 mm 0.0 W/m2
19:41 10.3 °C 9.1 °C 1013.8 hPa NE 1.9 km/h 5.6 km/h 92% 0 mm 0.0 W/m2
19:46 10.3 °C 9.1 °C 1013.8 hPa Calm   1.9 km/h 92% 0 mm 0.0 W/m2
19:51 10.2 °C 9 °C 1013.8 hPa NE 3.4 km/h 5.6 km/h 92% 0 mm 0.0 W/m2
19:56 10.2 °C 9 °C 1014.1 hPa NE 3.7 km/h 6.4 km/h 92% 0 mm 0.0 W/m2
20:01 10.2 °C 8.9 °C 1014.1 hPa NNE 3.9 km/h 5.6 km/h 92% 0 mm 0.0 W/m2
20:06 10.2 °C 8.9 °C 1014.1 hPa NE 1.1 km/h 1.9 km/h 92% 0 mm 0.0 W/m2
20:11 10.1 °C 9.1 °C 1014.1 hPa North 3.5 km/h 5.6 km/h 93% 0 mm 0.0 W/m2
20:12 10.1 °C 9.1 °C 1014.1 hPa NE 3.9 km/h 5.6 km/h 93% 0 mm 0.0 W/m2
20:17 10.1 °C 9 °C 1014.1 hPa NE 1.3 km/h 1.9 km/h 93% 0 mm 0.0 W/m2
20:22 10.1 °C 9 °C 1014.1 hPa NE 0.5 km/h 1.9 km/h 93% 0 mm 0.0 W/m2
20:27 10.1 °C 9 °C 1014.4 hPa NE 0.3 km/h 3.7 km/h 93% 0 mm 0.0 W/m2
20:32 10.1 °C 9 °C 1014.4 hPa NNE 1.9 km/h 5.6 km/h 93% 0 mm 0.0 W/m2
20:37 10 °C 8.9 °C 1014.4 hPa ENE 1.4 km/h 3.7 km/h 93% 0 mm 0.0 W/m2
20:42 9.9 °C 8.9 °C 1014.4 hPa NE 3.1 km/h 5.6 km/h 93% 0 mm 0.0 W/m2
20:47 9.9 °C 8.8 °C 1014.4 hPa ENE 1.6 km/h 3.7 km/h 93% 0 mm 0.0 W/m2
20:52 9.8 °C 8.8 °C 1014.4 hPa Calm   1.9 km/h 93% 0 mm 0.0 W/m2
20:57 9.8 °C 8.7 °C 1014.4 hPa ENE 0.5 km/h 1.9 km/h 93% 0 mm 0.0 W/m2
21:02 9.7 °C 8.7 °C 1014.4 hPa East 0.5 km/h 1.9 km/h 93% 0 mm 0.0 W/m2
21:07 9.7 °C 8.6 °C 1014.4 hPa East 0.3 km/h 1.9 km/h 93% 0 mm 0.0 W/m2
21:12 9.7 °C 8.7 °C 1014.4 hPa East 0.5 km/h 1.9 km/h 93% 0 mm 0.0 W/m2
21:18 9.8 °C 8.8 °C 1014.4 hPa NE 2.1 km/h 3.7 km/h 94% 0 mm 0.0 W/m2
21:23 9.7 °C 8.8 °C 1014.4 hPa NE 0.2 km/h 1.9 km/h 94% 0 mm 0.0 W/m2
21:28 9.8 °C 8.7 °C 1014.4 hPa NE 0.6 km/h 1.9 km/h 93% 0 mm 0.0 W/m2
21:33 9.7 °C 8.8 °C 1014.4 hPa NE 1.6 km/h 5.6 km/h 94% 0 mm 0.0 W/m2
21:38 9.7 °C 8.7 °C 1014.1 hPa Calm     93% 0 mm 0.0 W/m2
21:43 9.7 °C 8.8 °C 1014.4 hPa NE 1.6 km/h 3.7 km/h 94% 0 mm 0.0 W/m2
21:48 9.8 °C 8.8 °C 1014.4 hPa NNE 1.3 km/h 3.7 km/h 94% 0 mm 0.0 W/m2
21:53 9.7 °C 8.8 °C 1014.4 hPa North 2.9 km/h 5.6 km/h 94% 0 mm 0.0 W/m2
21:58 9.7 °C 8.8 °C 1014.4 hPa North 1.9 km/h 3.7 km/h 94% 0 mm 0.0 W/m2
22:03 9.7 °C 8.7 °C 1014.8 hPa North 1 km/h 3.7 km/h 94% 0 mm 0.0 W/m2
22:08 9.7 °C 8.7 °C 1014.8 hPa NNW 2.6 km/h 4.8 km/h 94% 0 mm 0.0 W/m2
22:13 9.7 °C 8.7 °C 1014.8 hPa NNW 3.7 km/h 5.6 km/h 94% 0 mm 0.0 W/m2
22:18 9.7 °C 8.7 °C 1014.8 hPa NNW 1.8 km/h 3.7 km/h 94% 0 mm 0.0 W/m2
22:23 9.7 °C 8.7 °C 1014.4 hPa North 2.1 km/h 5.6 km/h 94% 0 mm 0.0 W/m2
22:28 9.7 °C 8.7 °C 1014.4 hPa Calm     94% 0 mm 0.0 W/m2
22:33 9.7 °C 8.7 °C 1014.4 hPa Calm     94% 0 mm 0.0 W/m2
22:38 9.7 °C 8.7 °C 1014.4 hPa Calm     94% 0 mm 0.0 W/m2
22:43 9.7 °C 8.7 °C 1014.4 hPa Calm     94% 0 mm 0.0 W/m2
22:48 9.7 °C 8.7 °C 1014.4 hPa Calm     94% 0 mm 0.0 W/m2
22:53 9.7 °C 8.7 °C 1014.4 hPa NNE 0.3 km/h 3.7 km/h 94% 0 mm 0.0 W/m2
22:58 9.7 °C 8.7 °C 1014.4 hPa Calm     94% 0 mm 0.0 W/m2
23:03 9.7 °C 8.8 °C 1014.4 hPa NNE 0.2 km/h 3.7 km/h 94% 0 mm 0.0 W/m2
23:08 9.7 °C 8.8 °C 1014.4 hPa NNE 1.6 km/h 3.7 km/h 94% 0 mm 0.0 W/m2
23:13 9.7 °C 8.7 °C 1014.4 hPa Calm     94% 0 mm 0.0 W/m2
23:18 9.7 °C 8.7 °C 1014.1 hPa Calm     94% 0 mm 0.0 W/m2
23:23 9.7 °C 8.7 °C 1014.1 hPa Calm     94% 0 mm 0.0 W/m2
23:28 9.7 °C 8.8 °C 1014.1 hPa NNE 4.3 km/h 9.3 km/h 94% 0 mm 0.0 W/m2
23:33 9.7 °C 8.7 °C 1014.1 hPa NNE 2.4 km/h 3.7 km/h 94% 0 mm 0.0 W/m2
23:38 9.7 °C 8.7 °C 1014.1 hPa NE 3.5 km/h 5.6 km/h 94% 0 mm 0.0 W/m2
23:43 9.6 °C 8.7 °C 1014.1 hPa NNE 2.4 km/h 3.7 km/h 94% 0 mm 0.0 W/m2
23:48 9.6 °C 8.7 °C 1014.1 hPa North 3.1 km/h 5.6 km/h 94% 0 mm 0.0 W/m2
23:53 9.6 °C 8.6 °C 1014.1 hPa North 1.6 km/h 4.8 km/h 94% 0 mm 0.0 W/m2
23:55 9.6 °C 8.6 °C 1014.1 hPa North 1.9 km/h 3.7 km/h 94% 0 mm 0.0 W/m2
Juneau County Weather
Compliments of Weather Underground - 3 mb